sensor_id;sensor_type;location;lat;lon;timestamp;P1;durP1;ratioP1;P2;durP2;ratioP2
11642;SDS011;5877;50.930;6.918;2023-06-14T00:01:09;5.70;;;5.18;;
11642;SDS011;5877;50.930;6.918;2023-06-14T00:06:04;5.67;;;5.17;;
11642;SDS011;5877;50.930;6.918;2023-06-14T00:10:57;5.90;;;5.10;;
11642;SDS011;5877;50.930;6.918;2023-06-14T00:15:50;7.60;;;5.30;;
11642;SDS011;5877;50.930;6.918;2023-06-14T00:20:49;6.37;;;5.70;;
11642;SDS011;5877;50.930;6.918;2023-06-14T00:25:42;6.10;;;5.50;;
11642;SDS011;5877;50.930;6.918;2023-06-14T00:30:36;6.90;;;5.80;;
11642;SDS011;5877;50.930;6.918;2023-06-14T00:35:29;7.07;;;5.57;;
11642;SDS011;5877;50.930;6.918;2023-06-14T00:40:22;5.72;;;5.22;;
11642;SDS011;5877;50.930;6.918;2023-06-14T00:45:14;6.00;;;5.40;;
11642;SDS011;5877;50.930;6.918;2023-06-14T00:50:07;5.77;;;5.17;;
11642;SDS011;5877;50.930;6.918;2023-06-14T00:55:01;7.70;;;5.25;;
11642;SDS011;5877;50.930;6.918;2023-06-14T00:59:53;5.80;;;5.30;;
11642;SDS011;5877;50.930;6.918;2023-06-14T01:04:51;6.17;;;5.33;;
11642;SDS011;5877;50.930;6.918;2023-06-14T01:15:04;5.90;;;5.30;;
11642;SDS011;5877;50.930;6.918;2023-06-14T01:20:03;6.50;;;5.32;;
11642;SDS011;5877;50.930;6.918;2023-06-14T01:25:02;5.82;;;5.22;;
11642;SDS011;5877;50.930;6.918;2023-06-14T01:29:56;6.13;;;5.53;;
11642;SDS011;5877;50.930;6.918;2023-06-14T01:34:53;5.60;;;5.10;;
11642;SDS011;5877;50.930;6.918;2023-06-14T01:39:47;5.68;;;5.18;;
11642;SDS011;5877;50.930;6.918;2023-06-14T01:44:45;6.22;;;5.63;;
11642;SDS011;5877;50.930;6.918;2023-06-14T01:49:39;6.13;;;5.38;;
11642;SDS011;5877;50.930;6.918;2023-06-14T01:54:34;7.90;;;5.60;;
11642;SDS011;5877;50.930;6.918;2023-06-14T01:59:26;5.70;;;5.20;;
11642;SDS011;5877;50.930;6.918;2023-06-14T02:04:21;5.80;;;4.97;;
11642;SDS011;5877;50.930;6.918;2023-06-14T02:09:14;6.95;;;4.78;;
11642;SDS011;5877;50.930;6.918;2023-06-14T02:14:06;6.90;;;5.10;;
11642;SDS011;5877;50.930;6.918;2023-06-14T02:19:03;5.60;;;4.97;;
11642;SDS011;5877;50.930;6.918;2023-06-14T02:23:55;6.97;;;5.10;;
11642;SDS011;5877;50.930;6.918;2023-06-14T02:28:48;5.43;;;4.93;;
11642;SDS011;5877;50.930;6.918;2023-06-14T02:33:44;5.22;;;4.70;;
11642;SDS011;5877;50.930;6.918;2023-06-14T02:38:37;5.88;;;5.30;;
11642;SDS011;5877;50.930;6.918;2023-06-14T02:43:29;5.78;;;5.18;;
11642;SDS011;5877;50.930;6.918;2023-06-14T02:48:24;5.80;;;5.20;;
11642;SDS011;5877;50.930;6.918;2023-06-14T02:53:19;5.50;;;5.00;;
11642;SDS011;5877;50.930;6.918;2023-06-14T02:58:11;5.63;;;5.10;;
11642;SDS011;5877;50.930;6.918;2023-06-14T03:03:06;6.82;;;5.07;;
11642;SDS011;5877;50.930;6.918;2023-06-14T03:08:06;5.80;;;5.22;;
11642;SDS011;5877;50.930;6.918;2023-06-14T03:12:59;5.43;;;4.93;;
11642;SDS011;5877;50.930;6.918;2023-06-14T03:17:52;6.38;;;5.38;;
11642;SDS011;5877;50.930;6.918;2023-06-14T03:22:46;6.13;;;5.07;;
11642;SDS011;5877;50.930;6.918;2023-06-14T03:27:40;5.70;;;5.10;;
11642;SDS011;5877;50.930;6.918;2023-06-14T03:32:34;6.00;;;5.30;;
11642;SDS011;5877;50.930;6.918;2023-06-14T03:37:29;6.45;;;5.05;;
11642;SDS011;5877;50.930;6.918;2023-06-14T03:42:24;6.90;;;5.35;;
11642;SDS011;5877;50.930;6.918;2023-06-14T03:47:18;6.13;;;5.53;;
11642;SDS011;5877;50.930;6.918;2023-06-14T03:52:11;5.25;;;4.78;;
11642;SDS011;5877;50.930;6.918;2023-06-14T03:57:07;6.45;;;5.38;;
11642;SDS011;5877;50.930;6.918;2023-06-14T04:01:59;5.63;;;5.07;;
11642;SDS011;5877;50.930;6.918;2023-06-14T04:06:52;5.63;;;5.13;;
11642;SDS011;5877;50.930;6.918;2023-06-14T04:11:44;6.70;;;4.82;;
11642;SDS011;5877;50.930;6.918;2023-06-14T04:16:37;6.33;;;5.10;;
11642;SDS011;5877;50.930;6.918;2023-06-14T04:21:31;7.85;;;4.82;;
11642;SDS011;5877;50.930;6.918;2023-06-14T04:26:27;5.63;;;4.67;;
11642;SDS011;5877;50.930;6.918;2023-06-14T04:31:22;6.60;;;4.77;;
11642;SDS011;5877;50.930;6.918;2023-06-14T04:36:18;6.30;;;4.75;;
11642;SDS011;5877;50.930;6.918;2023-06-14T04:41:13;6.63;;;4.90;;
11642;SDS011;5877;50.930;6.918;2023-06-14T04:46:06;5.37;;;4.27;;
11642;SDS011;5877;50.930;6.918;2023-06-14T04:51:02;6.97;;;4.40;;
11642;SDS011;5877;50.930;6.918;2023-06-14T04:55:55;4.47;;;3.70;;
11642;SDS011;5877;50.930;6.918;2023-06-14T05:00:48;4.13;;;3.57;;
11642;SDS011;5877;50.930;6.918;2023-06-14T05:05:41;6.97;;;3.70;;
11642;SDS011;5877;50.930;6.918;2023-06-14T05:10:33;6.45;;;3.30;;
11642;SDS011;5877;50.930;6.918;2023-06-14T05:15:27;4.13;;;3.35;;
11642;SDS011;5877;50.930;6.918;2023-06-14T05:20:22;6.60;;;2.97;;
11642;SDS011;5877;50.930;6.918;2023-06-14T05:25:17;6.38;;;3.35;;
11642;SDS011;5877;50.930;6.918;2023-06-14T05:30:10;4.43;;;3.25;;
11642;SDS011;5877;50.930;6.918;2023-06-14T05:35:09;5.78;;;3.30;;
11642;SDS011;5877;50.930;6.918;2023-06-14T05:40:02;6.50;;;3.30;;
11642;SDS011;5877;50.930;6.918;2023-06-14T05:44:57;4.10;;;3.00;;
11642;SDS011;5877;50.930;6.918;2023-06-14T05:49:49;3.90;;;3.13;;
11642;SDS011;5877;50.930;6.918;2023-06-14T05:54:42;6.55;;;3.35;;
11642;SDS011;5877;50.930;6.918;2023-06-14T05:59:34;6.05;;;3.10;;
11642;SDS011;5877;50.930;6.918;2023-06-14T06:04:26;4.60;;;2.80;;
11642;SDS011;5877;50.930;6.918;2023-06-14T06:09:19;4.40;;;2.90;;
11642;SDS011;5877;50.930;6.918;2023-06-14T06:14:11;4.57;;;2.92;;
11642;SDS011;5877;50.930;6.918;2023-06-14T06:19:03;3.65;;;3.13;;
11642;SDS011;5877;50.930;6.918;2023-06-14T06:23:56;3.85;;;2.97;;
11642;SDS011;5877;50.930;6.918;2023-06-14T06:28:48;9.05;;;2.90;;
11642;SDS011;5877;50.930;6.918;2023-06-14T06:33:41;7.28;;;3.05;;
11642;SDS011;5877;50.930;6.918;2023-06-14T06:38:33;2.92;;;2.50;;
11642;SDS011;5877;50.930;6.918;2023-06-14T06:43:26;4.30;;;2.70;;
11642;SDS011;5877;50.930;6.918;2023-06-14T06:48:26;5.43;;;2.80;;
11642;SDS011;5877;50.930;6.918;2023-06-14T06:53:20;4.25;;;2.42;;
11642;SDS011;5877;50.930;6.918;2023-06-14T06:58:30;5.28;;;2.50;;
11642;SDS011;5877;50.930;6.918;2023-06-14T07:03:22;5.88;;;2.60;;
11642;SDS011;5877;50.930;6.918;2023-06-14T07:08:14;4.10;;;2.30;;
11642;SDS011;5877;50.930;6.918;2023-06-14T07:13:08;4.50;;;2.20;;
11642;SDS011;5877;50.930;6.918;2023-06-14T07:18:03;3.58;;;2.00;;
11642;SDS011;5877;50.930;6.918;2023-06-14T07:22:59;3.65;;;2.17;;
11642;SDS011;5877;50.930;6.918;2023-06-14T07:27:51;5.28;;;2.10;;
11642;SDS011;5877;50.930;6.918;2023-06-14T07:32:44;3.33;;;1.85;;
11642;SDS011;5877;50.930;6.918;2023-06-14T07:37:36;3.45;;;2.28;;
11642;SDS011;5877;50.930;6.918;2023-06-14T07:42:30;4.05;;;2.20;;
11642;SDS011;5877;50.930;6.918;2023-06-14T07:47:24;2.72;;;1.80;;
11642;SDS011;5877;50.930;6.918;2023-06-14T07:52:19;2.95;;;1.83;;
11642;SDS011;5877;50.930;6.918;2023-06-14T07:57:11;2.28;;;2.00;;
11642;SDS011;5877;50.930;6.918;2023-06-14T08:02:04;2.05;;;1.75;;
11642;SDS011;5877;50.930;6.918;2023-06-14T08:06:56;2.65;;;1.88;;
11642;SDS011;5877;50.930;6.918;2023-06-14T08:11:48;4.20;;;1.65;;
11642;SDS011;5877;50.930;6.918;2023-06-14T08:16:41;4.45;;;1.25;;
11642;SDS011;5877;50.930;6.918;2023-06-14T08:21:33;1.30;;;1.20;;
11642;SDS011;5877;50.930;6.918;2023-06-14T08:26:29;1.42;;;1.17;;
11642;SDS011;5877;50.930;6.918;2023-06-14T08:31:25;1.50;;;1.40;;
11642;SDS011;5877;50.930;6.918;2023-06-14T08:36:19;1.25;;;1.15;;
11642;SDS011;5877;50.930;6.918;2023-06-14T08:41:11;1.83;;;1.35;;
11642;SDS011;5877;50.930;6.918;2023-06-14T08:46:07;2.45;;;1.70;;
11642;SDS011;5877;50.930;6.918;2023-06-14T08:51:03;1.73;;;1.50;;
11642;SDS011;5877;50.930;6.918;2023-06-14T08:55:59;1.70;;;1.48;;
11642;SDS011;5877;50.930;6.918;2023-06-14T09:00:56;1.65;;;1.30;;
11642;SDS011;5877;50.930;6.918;2023-06-14T09:05:51;1.88;;;1.45;;
11642;SDS011;5877;50.930;6.918;2023-06-14T09:10:46;2.70;;;1.40;;
11642;SDS011;5877;50.930;6.918;2023-06-14T09:15:39;1.45;;;1.30;;
11642;SDS011;5877;50.930;6.918;2023-06-14T09:20:31;1.42;;;1.30;;
11642;SDS011;5877;50.930;6.918;2023-06-14T09:25:24;2.35;;;1.63;;
11642;SDS011;5877;50.930;6.918;2023-06-14T09:30:30;4.45;;;1.10;;
11642;SDS011;5877;50.930;6.918;2023-06-14T09:35:23;2.83;;;1.50;;
11642;SDS011;5877;50.930;6.918;2023-06-14T09:40:20;2.53;;;1.48;;
11642;SDS011;5877;50.930;6.918;2023-06-14T09:45:14;1.50;;;1.30;;
11642;SDS011;5877;50.930;6.918;2023-06-14T09:50:13;2.78;;;1.20;;
11642;SDS011;5877;50.930;6.918;2023-06-14T09:55:07;2.47;;;1.80;;
11642;SDS011;5877;50.930;6.918;2023-06-14T10:00:04;1.83;;;1.45;;
11642;SDS011;5877;50.930;6.918;2023-06-14T10:05:06;2.53;;;1.43;;
11642;SDS011;5877;50.930;6.918;2023-06-14T10:10:05;2.43;;;1.50;;
11642;SDS011;5877;50.930;6.918;2023-06-14T10:15:03;5.03;;;1.40;;
11642;SDS011;5877;50.930;6.918;2023-06-14T10:20:14;3.50;;;1.60;;
11642;SDS011;5877;50.930;6.918;2023-06-14T10:25:19;4.23;;;3.83;;
11642;SDS011;5877;50.930;6.918;2023-06-14T10:30:25;4.47;;;1.97;;
11642;SDS011;5877;50.930;6.918;2023-06-14T10:35:17;2.23;;;1.70;;
11642;SDS011;5877;50.930;6.918;2023-06-14T10:40:10;3.93;;;1.70;;
11642;SDS011;5877;50.930;6.918;2023-06-14T10:45:24;2.10;;;1.60;;
11642;SDS011;5877;50.930;6.918;2023-06-14T10:50:16;3.00;;;1.83;;
11642;SDS011;5877;50.930;6.918;2023-06-14T10:55:11;1.93;;;1.13;;
11642;SDS011;5877;50.930;6.918;2023-06-14T11:00:12;1.77;;;1.53;;
11642;SDS011;5877;50.930;6.918;2023-06-14T11:05:08;3.53;;;1.37;;
11642;SDS011;5877;50.930;6.918;2023-06-14T11:10:16;3.03;;;1.40;;
11642;SDS011;5877;50.930;6.918;2023-06-14T11:15:12;3.60;;;2.33;;
11642;SDS011;5877;50.930;6.918;2023-06-14T11:20:09;2.93;;;1.30;;
11642;SDS011;5877;50.930;6.918;2023-06-14T11:25:03;1.60;;;1.50;;
11642;SDS011;5877;50.930;6.918;2023-06-14T11:29:56;2.63;;;2.23;;
11642;SDS011;5877;50.930;6.918;2023-06-14T11:34:51;4.47;;;1.80;;
11642;SDS011;5877;50.930;6.918;2023-06-14T11:39:46;2.73;;;1.60;;
11642;SDS011;5877;50.930;6.918;2023-06-14T11:44:39;2.13;;;1.83;;
11642;SDS011;5877;50.930;6.918;2023-06-14T11:49:41;1.77;;;1.60;;
11642;SDS011;5877;50.930;6.918;2023-06-14T11:54:35;4.40;;;1.50;;
11642;SDS011;5877;50.930;6.918;2023-06-14T11:59:27;2.87;;;1.50;;
11642;SDS011;5877;50.930;6.918;2023-06-14T12:04:24;4.27;;;1.60;;
11642;SDS011;5877;50.930;6.918;2023-06-14T12:09:19;1.60;;;1.40;;
11642;SDS011;5877;50.930;6.918;2023-06-14T12:14:19;2.87;;;1.70;;
11642;SDS011;5877;50.930;6.918;2023-06-14T12:19:19;1.63;;;1.53;;
11642;SDS011;5877;50.930;6.918;2023-06-14T12:24:12;3.07;;;1.57;;
11642;SDS011;5877;50.930;6.918;2023-06-14T12:29:05;2.17;;;1.40;;
11642;SDS011;5877;50.930;6.918;2023-06-14T12:33:58;1.57;;;1.30;;
11642;SDS011;5877;50.930;6.918;2023-06-14T12:38:50;2.50;;;1.40;;
11642;SDS011;5877;50.930;6.918;2023-06-14T12:43:44;1.73;;;1.53;;
11642;SDS011;5877;50.930;6.918;2023-06-14T12:48:37;2.73;;;1.30;;
11642;SDS011;5877;50.930;6.918;2023-06-14T12:53:30;2.20;;;1.57;;
11642;SDS011;5877;50.930;6.918;2023-06-14T12:58:23;3.53;;;1.60;;
11642;SDS011;5877;50.930;6.918;2023-06-14T13:03:15;1.83;;;1.37;;
11642;SDS011;5877;50.930;6.918;2023-06-14T13:08:08;3.40;;;1.30;;
11642;SDS011;5877;50.930;6.918;2023-06-14T13:13:00;3.27;;;1.60;;
11642;SDS011;5877;50.930;6.918;2023-06-14T13:17:52;4.37;;;1.33;;
11642;SDS011;5877;50.930;6.918;2023-06-14T13:22:45;2.13;;;1.13;;
11642;SDS011;5877;50.930;6.918;2023-06-14T13:27:39;1.50;;;1.40;;
11642;SDS011;5877;50.930;6.918;2023-06-14T13:32:32;4.53;;;1.47;;
11642;SDS011;5877;50.930;6.918;2023-06-14T13:37:25;1.87;;;1.20;;
11642;SDS011;5877;50.930;6.918;2023-06-14T13:42:17;3.27;;;1.50;;
11642;SDS011;5877;50.930;6.918;2023-06-14T13:47:09;1.90;;;1.27;;
11642;SDS011;5877;50.930;6.918;2023-06-14T13:52:02;2.07;;;1.40;;
11642;SDS011;5877;50.930;6.918;2023-06-14T13:56:54;2.10;;;1.53;;
11642;SDS011;5877;50.930;6.918;2023-06-14T14:01:48;1.67;;;1.30;;
11642;SDS011;5877;50.930;6.918;2023-06-14T14:06:41;4.60;;;1.50;;
11642;SDS011;5877;50.930;6.918;2023-06-14T14:11:33;2.23;;;1.40;;
11642;SDS011;5877;50.930;6.918;2023-06-14T14:16:26;1.50;;;1.40;;
11642;SDS011;5877;50.930;6.918;2023-06-14T14:21:19;1.67;;;1.47;;
11642;SDS011;5877;50.930;6.918;2023-06-14T14:26:12;1.70;;;1.50;;
11642;SDS011;5877;50.930;6.918;2023-06-14T14:31:06;3.43;;;1.60;;
11642;SDS011;5877;50.930;6.918;2023-06-14T14:36:01;2.63;;;1.40;;
11642;SDS011;5877;50.930;6.918;2023-06-14T14:40:56;2.20;;;1.57;;
11642;SDS011;5877;50.930;6.918;2023-06-14T14:45:49;2.33;;;1.50;;
11642;SDS011;5877;50.930;6.918;2023-06-14T14:50:41;4.63;;;1.50;;
11642;SDS011;5877;50.930;6.918;2023-06-14T14:55:34;2.27;;;1.60;;
11642;SDS011;5877;50.930;6.918;2023-06-14T15:00:30;3.47;;;1.60;;
11642;SDS011;5877;50.930;6.918;2023-06-14T15:05:27;1.53;;;1.43;;
11642;SDS011;5877;50.930;6.918;2023-06-14T15:10:19;2.73;;;1.83;;
11642;SDS011;5877;50.930;6.918;2023-06-14T15:15:14;3.17;;;1.40;;
11642;SDS011;5877;50.930;6.918;2023-06-14T15:20:07;3.97;;;1.70;;
11642;SDS011;5877;50.930;6.918;2023-06-14T15:25:00;3.20;;;1.70;;
11642;SDS011;5877;50.930;6.918;2023-06-14T15:29:52;3.13;;;1.40;;
11642;SDS011;5877;50.930;6.918;2023-06-14T15:34:48;1.80;;;1.70;;
11642;SDS011;5877;50.930;6.918;2023-06-14T15:39:40;3.47;;;1.90;;
11642;SDS011;5877;50.930;6.918;2023-06-14T15:44:32;1.77;;;1.60;;
11642;SDS011;5877;50.930;6.918;2023-06-14T15:49:24;3.67;;;1.43;;
11642;SDS011;5877;50.930;6.918;2023-06-14T15:54:17;2.40;;;1.67;;
11642;SDS011;5877;50.930;6.918;2023-06-14T15:59:11;2.70;;;1.70;;
11642;SDS011;5877;50.930;6.918;2023-06-14T16:04:03;2.73;;;1.60;;
11642;SDS011;5877;50.930;6.918;2023-06-14T16:08:55;2.10;;;1.90;;
11642;SDS011;5877;50.930;6.918;2023-06-14T16:13:47;1.83;;;1.70;;
11642;SDS011;5877;50.930;6.918;2023-06-14T16:18:40;2.73;;;1.80;;
11642;SDS011;5877;50.930;6.918;2023-06-14T16:23:33;6.30;;;2.10;;
11642;SDS011;5877;50.930;6.918;2023-06-14T16:28:24;3.60;;;3.03;;
11642;SDS011;5877;50.930;6.918;2023-06-14T16:33:18;2.00;;;1.63;;
11642;SDS011;5877;50.930;6.918;2023-06-14T16:38:11;2.13;;;1.93;;
11642;SDS011;5877;50.930;6.918;2023-06-14T16:43:05;2.33;;;2.13;;
11642;SDS011;5877;50.930;6.918;2023-06-14T16:47:58;4.97;;;1.77;;
11642;SDS011;5877;50.930;6.918;2023-06-14T16:52:50;3.57;;;2.60;;
11642;SDS011;5877;50.930;6.918;2023-06-14T16:57:42;2.53;;;2.17;;
11642;SDS011;5877;50.930;6.918;2023-06-14T17:02:34;3.30;;;1.90;;
11642;SDS011;5877;50.930;6.918;2023-06-14T17:07:27;3.67;;;2.10;;
11642;SDS011;5877;50.930;6.918;2023-06-14T17:12:19;2.87;;;1.90;;
11642;SDS011;5877;50.930;6.918;2023-06-14T17:17:13;3.10;;;2.20;;
11642;SDS011;5877;50.930;6.918;2023-06-14T17:22:05;5.53;;;1.90;;
11642;SDS011;5877;50.930;6.918;2023-06-14T17:26:57;2.73;;;1.80;;
11642;SDS011;5877;50.930;6.918;2023-06-14T17:31:49;2.53;;;2.17;;
11642;SDS011;5877;50.930;6.918;2023-06-14T17:36:42;4.37;;;2.23;;
11642;SDS011;5877;50.930;6.918;2023-06-14T17:41:36;2.40;;;2.20;;
11642;SDS011;5877;50.930;6.918;2023-06-14T17:46:28;19.60;;;17.60;;
11642;SDS011;5877;50.930;6.918;2023-06-14T17:51:22;3.53;;;2.37;;
11642;SDS011;5877;50.930;6.918;2023-06-14T17:56:14;8.20;;;3.57;;
11642;SDS011;5877;50.930;6.918;2023-06-14T18:01:06;2.67;;;2.47;;
11642;SDS011;5877;50.930;6.918;2023-06-14T18:05:59;3.40;;;2.40;;
11642;SDS011;5877;50.930;6.918;2023-06-14T18:10:55;2.50;;;2.27;;
11642;SDS011;5877;50.930;6.918;2023-06-14T18:15:47;2.27;;;2.07;;
11642;SDS011;5877;50.930;6.918;2023-06-14T18:20:40;4.43;;;2.37;;
11642;SDS011;5877;50.930;6.918;2023-06-14T18:25:34;2.53;;;1.97;;
11642;SDS011;5877;50.930;6.918;2023-06-14T18:30:27;2.87;;;2.10;;
11642;SDS011;5877;50.930;6.918;2023-06-14T18:35:19;3.67;;;2.23;;
11642;SDS011;5877;50.930;6.918;2023-06-14T18:40:12;3.17;;;2.03;;
11642;SDS011;5877;50.930;6.918;2023-06-14T18:45:05;2.77;;;2.10;;
11642;SDS011;5877;50.930;6.918;2023-06-14T18:49:59;2.80;;;2.40;;
11642;SDS011;5877;50.930;6.918;2023-06-14T18:54:51;3.03;;;2.73;;
11642;SDS011;5877;50.930;6.918;2023-06-14T18:59:44;3.17;;;2.27;;
11642;SDS011;5877;50.930;6.918;2023-06-14T19:04:36;2.27;;;2.07;;
11642;SDS011;5877;50.930;6.918;2023-06-14T19:09:29;3.73;;;2.27;;
11642;SDS011;5877;50.930;6.918;2023-06-14T19:14:21;2.50;;;2.30;;
11642;SDS011;5877;50.930;6.918;2023-06-14T19:19:14;3.07;;;2.43;;
11642;SDS011;5877;50.930;6.918;2023-06-14T19:24:07;2.60;;;2.40;;
11642;SDS011;5877;50.930;6.918;2023-06-14T19:29:08;3.40;;;2.70;;
11642;SDS011;5877;50.930;6.918;2023-06-14T19:34:01;3.27;;;2.33;;
11642;SDS011;5877;50.930;6.918;2023-06-14T19:38:53;2.87;;;2.53;;
11642;SDS011;5877;50.930;6.918;2023-06-14T19:43:48;3.27;;;2.97;;
11642;SDS011;5877;50.930;6.918;2023-06-14T19:48:41;4.13;;;2.60;;
11642;SDS011;5877;50.930;6.918;2023-06-14T19:53:32;8.90;;;6.97;;
11642;SDS011;5877;50.930;6.918;2023-06-14T19:58:28;5.53;;;3.47;;
11642;SDS011;5877;50.930;6.918;2023-06-14T20:03:20;3.33;;;2.57;;
11642;SDS011;5877;50.930;6.918;2023-06-14T20:08:13;5.40;;;2.60;;
11642;SDS011;5877;50.930;6.918;2023-06-14T20:13:12;3.83;;;2.80;;
11642;SDS011;5877;50.930;6.918;2023-06-14T20:18:04;3.43;;;2.50;;
11642;SDS011;5877;50.930;6.918;2023-06-14T20:22:56;6.00;;;2.60;;
11642;SDS011;5877;50.930;6.918;2023-06-14T20:27:49;3.20;;;2.90;;
11642;SDS011;5877;50.930;6.918;2023-06-14T20:32:41;3.10;;;2.43;;
11642;SDS011;5877;50.930;6.918;2023-06-14T20:37:34;5.87;;;2.53;;
11642;SDS011;5877;50.930;6.918;2023-06-14T20:42:28;3.10;;;2.27;;
11642;SDS011;5877;50.930;6.918;2023-06-14T20:47:22;4.33;;;2.40;;
11642;SDS011;5877;50.930;6.918;2023-06-14T20:52:14;2.70;;;2.50;;
11642;SDS011;5877;50.930;6.918;2023-06-14T20:57:09;3.87;;;2.20;;
11642;SDS011;5877;50.930;6.918;2023-06-14T21:02:10;2.37;;;2.03;;
11642;SDS011;5877;50.930;6.918;2023-06-14T21:07:07;3.80;;;2.47;;
11642;SDS011;5877;50.930;6.918;2023-06-14T21:12:00;3.07;;;2.20;;
11642;SDS011;5877;50.930;6.918;2023-06-14T21:16:53;3.37;;;2.17;;
11642;SDS011;5877;50.930;6.918;2023-06-14T21:21:47;2.90;;;1.80;;
11642;SDS011;5877;50.930;6.918;2023-06-14T21:26:38;2.77;;;2.10;;
11642;SDS011;5877;50.930;6.918;2023-06-14T21:31:31;3.03;;;2.00;;
11642;SDS011;5877;50.930;6.918;2023-06-14T21:36:24;3.60;;;2.00;;
11642;SDS011;5877;50.930;6.918;2023-06-14T21:41:19;4.70;;;2.10;;
11642;SDS011;5877;50.930;6.918;2023-06-14T21:46:11;2.17;;;2.07;;
11642;SDS011;5877;50.930;6.918;2023-06-14T21:51:03;2.93;;;2.20;;
11642;SDS011;5877;50.930;6.918;2023-06-14T21:55:55;2.97;;;2.57;;
11642;SDS011;5877;50.930;6.918;2023-06-14T22:00:48;3.70;;;2.70;;
11642;SDS011;5877;50.930;6.918;2023-06-14T22:05:40;3.50;;;2.27;;
11642;SDS011;5877;50.930;6.918;2023-06-14T22:10:32;2.77;;;2.27;;
11642;SDS011;5877;50.930;6.918;2023-06-14T22:15:24;2.97;;;2.43;;
11642;SDS011;5877;50.930;6.918;2023-06-14T22:20:19;2.13;;;1.93;;
11642;SDS011;5877;50.930;6.918;2023-06-14T22:25:11;2.37;;;2.17;;
11642;SDS011;5877;50.930;6.918;2023-06-14T22:30:05;2.97;;;2.00;;
11642;SDS011;5877;50.930;6.918;2023-06-14T22:34:58;3.73;;;1.80;;
11642;SDS011;5877;50.930;6.918;2023-06-14T22:39:53;2.37;;;2.03;;
11642;SDS011;5877;50.930;6.918;2023-06-14T22:44:46;2.40;;;2.10;;
11642;SDS011;5877;50.930;6.918;2023-06-14T22:49:43;2.97;;;1.97;;
11642;SDS011;5877;50.930;6.918;2023-06-14T22:54:57;2.93;;;1.77;;
11642;SDS011;5877;50.930;6.918;2023-06-14T22:59:50;1.90;;;1.80;;
11642;SDS011;5877;50.930;6.918;2023-06-14T23:04:48;3.87;;;2.20;;
11642;SDS011;5877;50.930;6.918;2023-06-14T23:09:41;3.83;;;2.30;;
11642;SDS011;5877;50.930;6.918;2023-06-14T23:14:33;2.60;;;2.27;;
11642;SDS011;5877;50.930;6.918;2023-06-14T23:19:28;5.10;;;2.20;;
11642;SDS011;5877;50.930;6.918;2023-06-14T23:24:21;3.23;;;2.17;;
11642;SDS011;5877;50.930;6.918;2023-06-14T23:29:14;3.70;;;2.20;;
11642;SDS011;5877;50.930;6.918;2023-06-14T23:34:10;3.33;;;2.03;;
11642;SDS011;5877;50.930;6.918;2023-06-14T23:39:04;5.13;;;2.87;;
11642;SDS011;5877;50.930;6.918;2023-06-14T23:44:00;9.27;;;7.37;;
11642;SDS011;5877;50.930;6.918;2023-06-14T23:48:54;3.17;;;2.70;;
11642;SDS011;5877;50.930;6.918;2023-06-14T23:53:48;4.53;;;2.40;;
11642;SDS011;5877;50.930;6.918;2023-06-14T23:58:44;2.60;;;2.37;;
